Thunder radar more information blitzortung!


avis per Pluja more information rain snow radar


Visita la nostra xarxa de llocs de meteo:

Template documentation
and downloads

And another site



Rain From: 18-10-2018 10:00 Until: 16:59 warning for: Rain Level: Yellow info button

Pagina Historial Weather Underground text

Diari Resum Setembre 12, 2017 Unitats:  Mètric    Imperial   Tant
« Previous Dia
SegĂźent Dia »
Diari Setmana Mensual Anual Personalitzada
  Maxima: Minima: Media:
Temperatura: -17.8 °C -8.4 °C -5.8 °C
Punt de rosada: -17.8 °C -12.9 °C -11.1 °C
Humitat: Humidity % 33 % 56 %
Wind Speed: 0 km/h 0 km/h 7.7 km/h
RĂ fegues de vent: 0 km/h - -
Vent:- - SSW
Pression baro: 0 hPa 34130.9 hPa -
Precipitacions: 0 mm    
Historical Graphs
 
 
Dades de taula per Setembre 12, 2017
Temps Temperatura Punt de rosada Pression baro Vent Wind Speed RĂ fegues de vent Humitat Rainfall Rate (Hourly)
-17.8 °C -17.8 °C 0 hPa Calm     Humidity % 0 mm
00:00 -7.9 °C -9.7 °C 34256.2 hPa Calm   5.1 km/h 82 % 0 mm
00:03 -2.2 °C -11.8 °C 34130.9 hPa SW 19.2 km/h 19.2 km/h 34 % 0 mm
00:08 -2.2 °C -11.8 °C 34130.9 hPa SW 19.2 km/h 19.2 km/h 34 % 0 mm
00:10 -8.1 °C -10.1 °C 34222.3 hPa Calm   5.1 km/h 80 % 0 mm
00:13 -2.2 °C -11.8 °C 34130.9 hPa SW 19.2 km/h 19.2 km/h 34 % 0 mm
00:20 -8.1 °C -9.9 °C 34222.3 hPa West 2.6 km/h 5.1 km/h 81 % 0 mm
00:30 -8.2 °C -10.2 °C 34256.2 hPa West 5.1 km/h 5.1 km/h 80 % 0 mm
00:40 -8.3 °C -10.3 °C 34256.2 hPa West 5.1 km/h 5.1 km/h 79 % 0 mm
00:50 -8.3 °C -10.6 °C 34256.2 hPa West 2.6 km/h 2.6 km/h 77 % 0 mm
01:00 -8.2 °C -10.7 °C 34256.2 hPa West 2.6 km/h 5.1 km/h 75 % 0 mm
01:10 -8 °C -10.8 °C 34256.2 hPa West 7.7 km/h 10.3 km/h 72 % 0 mm
01:20 -7.9 °C -11 °C 34256.2 hPa West 7.7 km/h 7.7 km/h 70 % 0 mm
01:30 -8 °C -11.2 °C 34256.2 hPa West 2.6 km/h 5.1 km/h 69 % 0 mm
01:40 -8.1 °C -11.4 °C 34222.3 hPa WSW 2.6 km/h 7.7 km/h 68 % 0 mm
01:50 -8.1 °C -11.5 °C 34222.3 hPa WSW 2.6 km/h 5.1 km/h 67 % 0 mm
02:00 -8.1 °C -11.6 °C 34256.2 hPa West 2.6 km/h 7.7 km/h 67 % 0 mm
02:10 -8.1 °C -11.6 °C 34222.3 hPa West 2.6 km/h 5.1 km/h 66 % 0 mm
02:20 -8.1 °C -11.6 °C 34222.3 hPa West 2.6 km/h 5.1 km/h 66 % 0 mm
02:30 -8.2 °C -11.8 °C 34256.2 hPa Calm   2.6 km/h 65 % 0 mm
02:40 -8.1 °C -11.8 °C 34256.2 hPa WSW 2.6 km/h 5.1 km/h 65 % 0 mm
02:50 -8 °C -11.8 °C 34256.2 hPa Calm   5.1 km/h 64 % 0 mm
03:00 -8.1 °C -11.9 °C 34293.4 hPa Calm   5.1 km/h 64 % 0 mm
03:10 -8.1 °C -11.9 °C 34293.4 hPa SW 2.6 km/h 5.1 km/h 64 % 0 mm
03:20 -8.3 °C -12.1 °C 34293.4 hPa SW 2.6 km/h 5.1 km/h 64 % 0 mm
03:30 -8.1 °C -11.9 °C 34327.3 hPa WSW 2.6 km/h 5.1 km/h 64 % 0 mm
03:40 -8 °C -11.8 °C 34327.3 hPa SW 2.6 km/h 5.1 km/h 64 % 0 mm
03:50 -7.8 °C -11.7 °C 34327.3 hPa WSW 2.6 km/h 5.1 km/h 64 % 0 mm
04:00 -7.7 °C -11.8 °C 34327.3 hPa Calm   5.1 km/h 62 % 0 mm
04:10 -7.6 °C -11.7 °C 34327.3 hPa SW 2.6 km/h 5.1 km/h 62 % 0 mm
04:20 -7.5 °C -11.6 °C 34327.3 hPa SW 2.6 km/h 2.6 km/h 62 % 0 mm
04:30 -7.5 °C -11.6 °C 34327.3 hPa SW 7.7 km/h 10.3 km/h 62 % 0 mm
04:40 -7.3 °C -11.6 °C 34327.3 hPa SW 5.1 km/h 7.7 km/h 61 % 0 mm
04:50 -7.1 °C -11.7 °C 34327.3 hPa SW 2.6 km/h 5.1 km/h 59 % 0 mm
05:00 -7.1 °C -11.6 °C 34327.3 hPa SW 2.6 km/h 5.1 km/h 59 % 0 mm
05:10 -6.6 °C -11.5 °C 34327.3 hPa SW 5.1 km/h 7.7 km/h 57 % 0 mm
05:20 -6.7 °C -11.7 °C 34327.3 hPa SW 5.1 km/h 7.7 km/h 56 % 0 mm
05:30 -6.7 °C -11.8 °C 34327.3 hPa WSW 5.1 km/h 10.3 km/h 55 % 0 mm
10:33 -6.4 °C -11.5 °C 34327.3 hPa WNW 17.9 km/h 17.9 km/h 56 % 0 mm
10:34 -6.4 °C -11.5 °C 34327.3 hPa WSW 17.9 km/h 17.9 km/h 56 % 0 mm
10:39 -6.4 °C -11.6 °C 34361.1 hPa West 11.9 km/h 11.9 km/h 55 % 0 mm
10:44 -6.2 °C -11.4 °C 34361.1 hPa WSW 5.1 km/h 5.1 km/h 55 % 0 mm
10:49 -6.2 °C -11.4 °C 34361.1 hPa SW 15 km/h 15 km/h 55 % 0 mm
10:54 -6.3 °C -11.7 °C 34361.1 hPa West 15 km/h 15 km/h 54 % 0 mm
10:59 -5.8 °C -11.6 °C 34361.1 hPa SW 6 km/h 6 km/h 52 % 0 mm
11:04 -5.4 °C -11 °C 34361.1 hPa West 16.1 km/h 16.1 km/h 53 % 0 mm
11:09 -5.4 °C -11.2 °C 34361.1 hPa NNW 9.3 km/h 9.3 km/h 52 % 0 mm
11:14 -5.8 °C -11.7 °C 34361.1 hPa West 11.9 km/h 11.9 km/h 51 % 0 mm
11:19 -5.6 °C -11.7 °C 34361.1 hPa NE 9 km/h 9 km/h 50 % 0 mm
11:24 -5.4 °C -11.4 °C 34395 hPa WSW 15.6 km/h 15.6 km/h 50 % 0 mm
11:29 -5.4 °C -11.4 °C 34395 hPa NW 20.9 km/h 20.9 km/h 50 % 0 mm
11:34 -5.3 °C -11.6 °C 34395 hPa ESE 11.9 km/h 11.9 km/h 49 % 0 mm
11:39 -5.1 °C -11.4 °C 34395 hPa WSW 9 km/h 9 km/h 49 % 0 mm
11:44 -5.1 °C -11.3 °C 34395 hPa WSW 9 km/h 9 km/h 49 % 0 mm
11:49 -4.9 °C -11.3 °C 34395 hPa SW 6 km/h 6 km/h 48 % 0 mm
11:54 -4.7 °C -11.2 °C 34395 hPa WSW 11.9 km/h 11.9 km/h 48 % 0 mm
11:59 -4.7 °C -11.3 °C 34395 hPa NNW 9 km/h 9 km/h 47 % 0 mm
12:04 -4.9 °C -11.4 °C 34395 hPa WSW 12.2 km/h 12.2 km/h 48 % 0 mm
12:09 -4.9 °C -11.5 °C 34395 hPa South 9 km/h 9 km/h 47 % 0 mm
12:14 -4.7 °C -11.3 °C 34395 hPa WSW 9 km/h 9 km/h 47 % 0 mm
12:19 -4.7 °C -11.3 °C 34395 hPa West 9 km/h 9 km/h 47 % 0 mm
12:24 -4.6 °C -11.3 °C 34395 hPa SSW 19.2 km/h 19.2 km/h 47 % 0 mm
12:29 -4.8 °C -11.6 °C 34395 hPa WSW 11.9 km/h 11.9 km/h 46 % 0 mm
12:34 -4.8 °C -11.6 °C 34395 hPa WSW 15 km/h 15 km/h 46 % 0 mm
12:39 -4.4 °C -11.5 °C 34395 hPa SSW 12.2 km/h 12.2 km/h 45 % 0 mm
12:44 -4.3 °C -11.3 °C 34395 hPa WNW 9.3 km/h 9.8 km/h 45 % 0 mm
12:49 -4.1 °C -11.3 °C 34395 hPa WSW 7.6 km/h 7.6 km/h 44 % 0 mm
12:54 -3.9 °C -11.2 °C 34361.1 hPa WSW 9 km/h 9.3 km/h 44 % 0 mm
12:59 -4.1 °C -11.5 °C 34361.1 hPa SW 11.9 km/h 11.9 km/h 43 % 0 mm
13:04 -4 °C -11.4 °C 34361.1 hPa West 15 km/h 15 km/h 43 % 0 mm
13:09 -4.1 °C -11.6 °C 34395 hPa WSW 11.9 km/h 11.9 km/h 43 % 0 mm
13:14 -4.2 °C -11.8 °C 34395 hPa West 15 km/h 15 km/h 42 % 0 mm
13:19 -4.2 °C -11.8 °C 34395 hPa SW 11.9 km/h 11.9 km/h 42 % 0 mm
13:24 -4.2 °C -12 °C 34361.1 hPa SSE 11.9 km/h 11.9 km/h 41 % 0 mm
13:29 -4 °C -11.8 °C 34361.1 hPa SW 9 km/h 9 km/h 41 % 0 mm
13:34 -3.8 °C -11.9 °C 34361.1 hPa West 26.9 km/h 26.9 km/h 40 % 0 mm
13:39 -3.6 °C -11.7 °C 34361.1 hPa WSW 17.9 km/h 17.9 km/h 40 % 0 mm
13:44 -3.7 °C -12 °C 34361.1 hPa SW 15 km/h 15 km/h 39 % 0 mm
13:49 -3.6 °C -11.9 °C 34361.1 hPa WSW 8.5 km/h 8.5 km/h 39 % 0 mm
13:54 -3.6 °C -11.9 °C 34361.1 hPa North 9 km/h 9 km/h 39 % 0 mm
13:59 -3.5 °C -11.8 °C 34361.1 hPa WSW 8 km/h 8 km/h 39 % 0 mm
14:04 -3.3 °C -11.8 °C 34361.1 hPa South 17.9 km/h 17.9 km/h 38 % 0 mm
14:09 -3.6 °C -12.1 °C 34361.1 hPa WSW 17.9 km/h 17.9 km/h 38 % 0 mm
14:14 -3.7 °C -12.3 °C 34361.1 hPa SW 11.9 km/h 11.9 km/h 38 % 0 mm
14:19 -3.7 °C -12.3 °C 34361.1 hPa West 6 km/h 6 km/h 38 % 0 mm
14:24 -3.8 °C -12.3 °C 34361.1 hPa SW 9 km/h 9 km/h 38 % 0 mm
14:29 -3.7 °C -12.4 °C 34361.1 hPa West 7.6 km/h 8.5 km/h 37 % 0 mm
14:34 -3.9 °C -12.4 °C 34361.1 hPa WSW 15 km/h 15 km/h 38 % 0 mm
14:39 -3.8 °C -12.6 °C 34361.1 hPa West 9 km/h 9 km/h 37 % 0 mm
14:40 -3.7 °C -12.4 °C 34361.1 hPa WSW 9 km/h 9 km/h 37 % 0 mm
14:45 -3.6 °C -12.4 °C 34361.1 hPa SW 14 km/h 14 km/h 37 % 0 mm
14:50 -3.7 °C -12.4 °C 34361.1 hPa West 9 km/h 9 km/h 37 % 0 mm
14:55 -3.7 °C -12.7 °C 34361.1 hPa South 14.5 km/h 14.5 km/h 36 % 0 mm
15:00 -3.6 °C -12.3 °C 34361.1 hPa SSE 9 km/h 9 km/h 37 % 0 mm
15:05 -3.4 °C -12.4 °C 34361.1 hPa West 15 km/h 15 km/h 36 % 0 mm
15:10 -3.1 °C -12.2 °C 34361.1 hPa WSW 10.3 km/h 10.3 km/h 36 % 0 mm
15:15 -3.1 °C -12.1 °C 34361.1 hPa West 11.9 km/h 11.9 km/h 36 % 0 mm
15:20 -3.1 °C -12.1 °C 34361.1 hPa SSW 9 km/h 9 km/h 36 % 0 mm
15:25 -3.1 °C -12.1 °C 34361.1 hPa WSW 15.3 km/h 15.3 km/h 36 % 0 mm
15:30 -3.2 °C -12.7 °C 34361.1 hPa WSW 15 km/h 15 km/h 34 % 0 mm
15:35 -3.2 °C -12.9 °C 34361.1 hPa SSW 11.9 km/h 11.9 km/h 33 % 0 mm
15:40 -3.2 °C -12.5 °C 34361.1 hPa SW 9 km/h 9 km/h 35 % 0 mm
15:45 -3.1 °C -12.4 °C 34361.1 hPa West 10.3 km/h 10.3 km/h 35 % 0 mm
15:50 -3.1 °C -12.3 °C 34327.3 hPa West 11.9 km/h 11.9 km/h 35 % 0 mm
15:55 -3.2 °C -12.4 °C 34327.3 hPa WNW 6.3 km/h 6.3 km/h 35 % 0 mm
16:00 -2.9 °C -12.3 °C 34327.3 hPa WNW 15.6 km/h 15.6 km/h 35 % 0 mm
16:05 -2.8 °C -12.6 °C 34327.3 hPa West 11.9 km/h 11.9 km/h 33 % 0 mm
16:10 -2.9 °C -12.7 °C 34327.3 hPa WNW 9 km/h 9 km/h 33 % 0 mm
16:15 -2.9 °C -12.4 °C 34327.3 hPa NNW 9 km/h 9 km/h 34 % 0 mm
16:20 -3.1 °C -12.3 °C 34361.1 hPa North 9 km/h 9 km/h 35 % 0 mm
16:25 -3.6 °C -11.9 °C 34361.1 hPa North 11.9 km/h 11.9 km/h 39 % 0 mm
16:30 -3.7 °C -11.8 °C 34361.1 hPa NW 15 km/h 15 km/h 40 % 0 mm
16:35 -3.9 °C -11.8 °C 34361.1 hPa NNE 17.9 km/h 17.9 km/h 41 % 0 mm
16:40 -3.9 °C -11.4 °C 34361.1 hPa ENE 26.9 km/h 26.9 km/h 43 % 0 mm
16:45 -4.3 °C -11.2 °C 34361.1 hPa East 17.9 km/h 17.9 km/h 46 % 0 mm
16:50 -4.3 °C -10.9 °C 34361.1 hPa SSE 17.9 km/h 17.9 km/h 47 % 0 mm
16:51 -4.3 °C -10.9 °C 34361.1 hPa ESE 15 km/h 15 km/h 47 % 0 mm
16:56 -4.3 °C -10.9 °C 34361.1 hPa East 9 km/h 9 km/h 47 % 0 mm
17:01 -4.3 °C -10.7 °C 34361.1 hPa ESE 20.9 km/h 20.9 km/h 49 % 0 mm
17:06 -4.1 °C -10.4 °C 34361.1 hPa ESE 9 km/h 9 km/h 49 % 0 mm
17:11 -4.4 °C -10.6 °C 34361.1 hPa ESE 26.9 km/h 26.9 km/h 50 % 0 mm
17:16 -4.5 °C -10.7 °C 34361.1 hPa East 20.9 km/h 20.9 km/h 50 % 0 mm
17:21 -4.2 °C -10.3 °C 34395 hPa SSW 11.9 km/h 11.9 km/h 50 % 0 mm
17:26 -3.9 °C -10.4 °C 34395 hPa SSW 15 km/h 15 km/h 48 % 0 mm
17:36 -3.9 °C -10.6 °C 34395 hPa SSW 20.3 km/h 20.3 km/h 47 % 0 mm
17:41 -3.7 °C -10.4 °C 34395 hPa NNW 6 km/h 6 km/h 47 % 0 mm
17:46 -3.7 °C -10.4 °C 34395 hPa South 10.3 km/h 10.3 km/h 47 % 0 mm
17:51 -3.7 °C -10.4 °C 34395 hPa SSW 23.8 km/h 23.8 km/h 47 % 0 mm
17:56 -3.6 °C -10.3 °C 34395 hPa SW 9.3 km/h 9.3 km/h 47 % 0 mm
18:01 -3.4 °C -10.2 °C 34395 hPa SW 9 km/h 9 km/h 47 % 0 mm
18:06 -3.5 °C -10.4 °C 34395 hPa West 15 km/h 15 km/h 46 % 0 mm
18:11 -3.4 °C -10.4 °C 34395 hPa South 11.9 km/h 11.9 km/h 46 % 0 mm
18:16 -3.7 °C -10.7 °C 34395 hPa SW 16.1 km/h 16.1 km/h 46 % 0 mm
18:21 -3.7 °C -10.7 °C 34395 hPa WSW 14 km/h 14 km/h 46 % 0 mm
18:26 -4.1 °C -11 °C 34395 hPa South 17.9 km/h 17.9 km/h 46 % 0 mm
18:31 -4.2 °C -10.9 °C 34395 hPa SSW 15 km/h 15 km/h 47 % 0 mm
18:36 -4.3 °C -10.9 °C 34395 hPa SW 19.2 km/h 19.2 km/h 47 % 0 mm
18:41 -4.2 °C -10.9 °C 34395 hPa WSW 17.9 km/h 17.9 km/h 47 % 0 mm
18:46 -4.3 °C -10.9 °C 34395 hPa WSW 14 km/h 14 km/h 47 % 0 mm
18:51 -4.3 °C -11 °C 34395 hPa South 10.3 km/h 10.3 km/h 47 % 0 mm
18:56 -4.4 °C -11.1 °C 34395 hPa ESE 15 km/h 15 km/h 47 % 0 mm
19:01 -4.7 °C -11.2 °C 34395 hPa WSW 17.9 km/h 17.9 km/h 48 % 0 mm
19:06 -4.8 °C -11.2 °C 34395 hPa WSW 9 km/h 9 km/h 48 % 0 mm
19:10 -7.5 °C -10 °C 34533.8 hPa NNE 2.6 km/h 2.6 km/h 75 % 0 mm
19:11 -4.8 °C -11.3 °C 34395 hPa WSW 9.8 km/h 9.8 km/h 48 % 0 mm
19:16 -4.9 °C -11.2 °C 34395 hPa SW 18.3 km/h 18.3 km/h 49 % 0 mm
19:20 -7.6 °C -10.1 °C 34533.8 hPa NNE 2.6 km/h 2.6 km/h 75 % 0 mm
19:21 -5.2 °C -11.3 °C 34428.8 hPa SW 20.9 km/h 20.9 km/h 50 % 0 mm
19:26 -5.3 °C -11.2 °C 34428.8 hPa SSW 9 km/h 9 km/h 51 % 0 mm
19:30 -7.6 °C -10 °C 34533.8 hPa Calm   2.6 km/h 76 % 0 mm
19:31 -5.3 °C -11.1 °C 34428.8 hPa SSW 11.9 km/h 11.9 km/h 52 % 0 mm
19:36 -5.4 °C -11.2 °C 34428.8 hPa South 17.9 km/h 17.9 km/h 52 % 0 mm
19:40 -7.7 °C -10.1 °C 34533.8 hPa Calm     76 % 0 mm
19:41 -5.6 °C -11.1 °C 34428.8 hPa SW 11.9 km/h 11.9 km/h 53 % 0 mm
19:46 -5.7 °C -11.1 °C 34428.8 hPa SW 15 km/h 15 km/h 54 % 0 mm
19:50 -7.7 °C -9.9 °C 34533.8 hPa Calm     77 % 0 mm
19:51 -5.7 °C -11.1 °C 34462.7 hPa SW 11.9 km/h 11.9 km/h 54 % 0 mm
19:56 -5.8 °C -10.9 °C 34462.7 hPa South 3.1 km/h   56 % 0 mm
20:00 -7.7 °C -9.9 °C 34533.8 hPa Calm     77 % 0 mm
20:01 -5.8 °C -10.9 °C 34462.7 hPa West 9 km/h 9 km/h 56 % 0 mm
20:06 -5.9 °C -11 °C 34462.7 hPa SSW 9 km/h 9 km/h 56 % 0 mm
20:10 -7.7 °C -9.9 °C 34533.8 hPa Calm     77 % 0 mm
20:11 -6.1 °C -11.1 °C 34462.7 hPa WSW 6.8 km/h 6.8 km/h 56 % 0 mm
20:16 -6.1 °C -11.2 °C 34462.7 hPa SSW 9 km/h 9 km/h 56 % 0 mm
20:20 -7.6 °C -9.9 °C 34533.8 hPa Calm     77 % 0 mm
20:21 -6.2 °C -10.9 °C 34462.7 hPa Calm     58 % 0 mm
20:26 -6.2 °C -11 °C 34462.7 hPa WSW 9 km/h 9 km/h 58 % 0 mm
20:30 -7.6 °C -9.8 °C 34533.8 hPa Calm   2.6 km/h 77 % 0 mm
20:31 -6.3 °C -11.1 °C 34462.7 hPa WSW 6 km/h 6 km/h 58 % 0 mm
20:36 -6.3 °C -11.1 °C 34462.7 hPa West 6 km/h 6 km/h 58 % 0 mm
20:40 -7.5 °C -9.8 °C 34533.8 hPa Calm     77 % 0 mm
20:41 -6.4 °C -11 °C 34462.7 hPa SW 6 km/h 6 km/h 59 % 0 mm
20:46 -6.4 °C -11.1 °C 34462.7 hPa SW 3.1 km/h 3.1 km/h 59 % 0 mm
20:50 -7.5 °C -9.7 °C 34533.8 hPa Calm   5.1 km/h 78 % 0 mm
20:51 -6.5 °C -10.9 °C 34462.7 hPa SW 3.1 km/h 3.1 km/h 60 % 0 mm
20:56 -6.6 °C -10.9 °C 34462.7 hPa Calm     61 % 0 mm
21:00 -7.6 °C -9.7 °C 34533.8 hPa NNE 5.1 km/h 5.1 km/h 78 % 0 mm
21:01 -6.6 °C -10.9 °C 34462.7 hPa WSW 3.1 km/h   61 % 0 mm
21:06 -6.6 °C -10.8 °C 34496.6 hPa WSW 3.1 km/h   62 % 0 mm
21:10 -7.6 °C -9.8 °C 34533.8 hPa NE 2.6 km/h 5.1 km/h 78 % 0 mm
21:11 -6.7 °C -10.8 °C 34496.6 hPa Calm     62 % 0 mm
21:16 -6.7 °C -10.6 °C 34496.6 hPa Calm     64 % 0 mm
21:20 -7.7 °C -9.9 °C 34533.8 hPa Calm   2.6 km/h 78 % 0 mm
21:21 -6.7 °C -10.6 °C 34496.6 hPa Calm     64 % 0 mm
21:26 -6.7 °C -10.5 °C 34496.6 hPa South 2.3 km/h   65 % 0 mm
21:30 -7.8 °C -10 °C 34533.8 hPa Calm     78 % 0 mm
21:31 -6.8 °C -10.5 °C 34496.6 hPa Calm     65 % 0 mm
21:36 -6.8 °C -10.5 °C 34496.6 hPa SSW 3.1 km/h 3.1 km/h 65 % 0 mm
21:40 -7.9 °C -10.1 °C 34533.8 hPa Calm     78 % 0 mm
21:41 -6.8 °C -10.4 °C 34496.6 hPa Calm     66 % 0 mm
21:46 -6.9 °C -10.5 °C 34496.6 hPa Calm     66 % 0 mm
21:50 -8 °C -10.1 °C 34533.8 hPa Calm     79 % 0 mm
21:51 -6.9 °C -10.4 °C 34496.6 hPa Calm     67 % 0 mm
21:56 -6.9 °C -10.4 °C 34496.6 hPa Calm     67 % 0 mm
22:00 -8 °C -10.1 °C 34533.8 hPa Calm     79 % 0 mm
22:01 -6.9 °C -10.3 °C 34496.6 hPa ESE 3.1 km/h   68 % 0 mm
22:06 -6.9 °C -10.2 °C 34496.6 hPa ESE 3.1 km/h   69 % 0 mm
22:10 -8.1 °C -10.1 °C 34533.8 hPa Calm     79 % 0 mm
22:11 -7 °C -10.4 °C 34496.6 hPa Calm     68 % 0 mm
22:16 -7.1 °C -10.3 °C 34496.6 hPa Calm     69 % 0 mm
22:20 -8.1 °C -10.1 °C 34533.8 hPa Calm     80 % 0 mm
22:21 -7.1 °C -10.3 °C 34496.6 hPa Calm     69 % 0 mm
22:26 -7.1 °C -10.3 °C 34496.6 hPa Calm     69 % 0 mm
22:30 -8.1 °C -10.1 °C 34533.8 hPa SSW 2.6 km/h 2.6 km/h 80 % 0 mm
22:31 -7.1 °C -10.3 °C 34496.6 hPa Calm     69 % 0 mm
22:36 -7.1 °C -10.3 °C 34533.8 hPa South 3.7 km/h 3.7 km/h 69 % 0 mm
22:40 -8.1 °C -9.9 °C 34533.8 hPa SSE 2.6 km/h 2.6 km/h 81 % 0 mm
22:41 -7.1 °C -10.2 °C 34533.8 hPa Calm     70 % 0 mm
22:46 -7.2 °C -10.3 °C 34533.8 hPa Calm     70 % 0 mm
22:50 -8.2 °C -10 °C 34533.8 hPa ESE 2.6 km/h 5.1 km/h 81 % 0 mm
22:51 -7.2 °C -10.2 °C 34533.8 hPa Calm     71 % 0 mm
22:56 -7.2 °C -10.2 °C 34533.8 hPa Calm     71 % 0 mm
23:00 -8.2 °C -10.1 °C 34533.8 hPa Calm   5.1 km/h 81 % 0 mm
23:01 -7.2 °C -10.2 °C 34533.8 hPa Calm     71 % 0 mm
23:06 -7.2 °C -10.2 °C 34496.6 hPa Calm     71 % 0 mm
23:10 -8.3 °C -10.1 °C 34567.7 hPa Calm   2.6 km/h 82 % 0 mm
23:11 -7.2 °C -10.2 °C 34496.6 hPa Calm     71 % 0 mm
23:16 -7.2 °C -10.1 °C 34496.6 hPa ESE 3.1 km/h   72 % 0 mm
23:20 -8.4 °C -10.1 °C 34567.7 hPa Calm   2.6 km/h 82 % 0 mm
23:21 -7.2 °C -10.1 °C 34533.8 hPa ENE 4.2 km/h   72 % 0 mm
23:26 -7.3 °C -10.1 °C 34533.8 hPa ENE 6 km/h 6 km/h 73 % 0 mm
23:30 -8.4 °C -10.1 °C 34533.8 hPa Calm   2.6 km/h 82 % 0 mm
23:31 -7.3 °C -10.1 °C 34533.8 hPa NNE 3.1 km/h 3.1 km/h 73 % 0 mm
23:36 -7.3 °C -10.1 °C 34533.8 hPa NNE 6 km/h   73 % 0 mm
23:40 -8.4 °C -10.1 °C 34533.8 hPa Calm     83 % 0 mm
23:41 -7.4 °C -10.1 °C 34533.8 hPa Calm     73 % 0 mm
23:46 -7.4 °C -10.1 °C 34533.8 hPa Calm     74 % 0 mm
23:50 -8.4 °C -10.1 °C 34533.8 hPa NNW 5.1 km/h 7.7 km/h 83 % 0 mm
23:51 -7.5 °C -10.1 °C 34533.8 hPa Calm     74 % 0 mm
23:56 -7.5 °C -10.1 °C 34533.8 hPa NNE 6 km/h 6 km/h 74 % 0 mm
Meteo Sesrovires
Elogis d' Weather Underground - 1.5 mb

Guio original per  Jim McMurry - jmcmurry@mwt.net Adaptat per a la plantilla per  Wim van der Kuil - Leuven-Template.eu

Trobareu la nostra informacio del temps tambe a:

Weather Underground

AWEKAS